KMGM

Montgomery Regional (Dannelly Field) Airport

Montgomery, Alabama, USA
KMGM 201121Z 2012/2112 00000KT P6SM OVC007 FM201500 09005KT P6SM SCT250 FM201800 33005KT P6SM SCT040 FM210300 18004KT P6SM VCTS SCT025CB BKN040 PROB30 2104/2110 27025G35KT 2SM TSRA BKN025CB
Issued Valid From Valid To
Jul-20 @ 11:21 UTC
(3 hours ago)
Jul-20 @ 12:00 UTC
(3 hours ago)
Jul-21 @ 12:00 UTC
(in 21 hours)
Jul-20 @ 12:00 to Jul-20 @ 15:00
KMGM 201121Z 2012/2112 00000KT P6SM OVC007
Visibility Clouds
Greater than 6 miles
  • Overcast at 700' AGL
From Jul-20 @ 15:00 to Jul-20 @ 18:00
FM201500 09005KT P6SM SCT250
Wind Visibility Clouds
90° at 5 knots Greater than 6 miles
  • Scattered at 25,000' AGL
From Jul-20 @ 18:00 to Jul-21 @ 03:00
FM201800 33005KT P6SM SCT040
Wind Visibility Clouds
330° at 5 knots Greater than 6 miles
  • Scattered at 4,000' AGL
From Jul-21 @ 03:00 to Jul-21 @ 12:00
FM210300 18004KT P6SM VCTS SCT025CB BKN040
Wind Visibility Clouds Conditions
180° at 4 knots Greater than 6 miles
  • Scattered at 2,500' AGL
  • Broken at 4,000' AGL
  • Area Thunderstorm
Probable  (Probability 30%) Jul-21 @ 04:00 to Jul-21 @ 10:00
PROB30 2104/2110 27025G35KT 2SM TSRA BKN025CB
Wind Visibility Clouds Conditions
270° at 25 knots
 Gusting to 35 knots
2 miles
  • Broken at 2,500' AGL
  • Thunderstorm
  • Rain
KMGM 201121Z 2012/2112 00000KT P6SM OVC007 FM201500 09005KT P6SM SCT250 FM201800 33005KT P6SM SCT040 FM210300 18004KT P6SM VCTS SCT025CB BKN040 PROB30 2104/2110 27025G35KT 2SM TSRA BKN025CB
Issued Jul-20 @ 11:21 UTC
(3 hours ago)
Valid From Jul-20 @ 12:00 UTC
(3 hours ago)
Valid To Jul-21 @ 12:00 UTC
(in 21 hours)
Jul-20 @ 12:00 - Jul-20 @ 15:00
Clouds
  • Overcast at 700' AGL
From Jul-20 @ 15:00 - Jul-20 @ 18:00
Wind Visibility
90° at 5 knots Greater than 6 miles
Clouds
  • Scattered at 25,000' AGL
From Jul-20 @ 18:00 - Jul-21 @ 03:00
Wind Visibility
330° at 5 knots Greater than 6 miles
Clouds
  • Scattered at 4,000' AGL
From Jul-21 @ 03:00 - Jul-21 @ 12:00
Wind Visibility
180° at 4 knots Greater than 6 miles
Clouds
  • Scattered at 2,500' AGL
  • Broken at 4,000' AGL
Conditions
  • Area Thunderstorm
Probability 30% Probable Jul-21 @ 04:00 - Jul-21 @ 10:00
Wind Visibility
270° at 25 knots
 Gusting to 35 knots
2 miles
Clouds
  • Broken at 2,500' AGL
Conditions
  • Thunderstorm
  • Rain